createdAt,value
2022-11-21T00:01:24.952Z,-0.60
2022-11-21T00:03:52.663Z,-0.90
2022-11-21T00:06:20.385Z,-1.00
2022-11-21T00:08:47.635Z,-1.00
2022-11-21T00:11:16.187Z,-1.00
2022-11-21T00:13:44.040Z,-1.00
2022-11-21T00:16:16.678Z,-1.00
2022-11-21T00:18:44.551Z,-1.00
2022-11-21T00:21:17.328Z,-1.10
2022-11-21T00:23:45.671Z,-1.20
2022-11-21T00:26:14.015Z,-1.30
2022-11-21T00:28:41.827Z,-1.30
2022-11-21T00:31:09.088Z,-1.20
2022-11-21T00:33:36.955Z,-1.20
2022-11-21T00:36:08.929Z,-1.10
2022-11-21T00:38:37.071Z,-1.00
2022-11-21T00:41:04.647Z,-0.90
2022-11-21T00:43:32.042Z,-0.90
2022-11-21T00:46:01.417Z,-1.00
2022-11-21T00:48:29.935Z,-1.00
2022-11-21T00:50:57.201Z,-1.00
2022-11-21T00:53:24.308Z,-1.10
2022-11-21T00:55:51.506Z,-1.10
2022-11-21T00:58:18.832Z,-1.00
2022-11-21T01:00:46.120Z,-0.80
2022-11-21T01:03:13.394Z,-0.70
2022-11-21T01:05:40.582Z,-0.80
2022-11-21T01:08:07.926Z,-0.80
2022-11-21T01:10:36.061Z,-0.90
2022-11-21T01:13:03.597Z,-0.90
2022-11-21T01:15:30.788Z,-1.00
2022-11-21T01:17:57.911Z,-0.90
2022-11-21T01:20:25.046Z,-0.90
2022-11-21T01:22:52.331Z,-0.80
2022-11-21T01:25:19.457Z,-0.70
2022-11-21T01:27:46.568Z,-0.60
2022-11-21T01:30:14.715Z,-0.40
2022-11-21T01:32:41.831Z,-0.40
2022-11-21T01:35:09.236Z,-0.30
2022-11-21T01:37:36.339Z,-0.40
2022-11-21T01:40:04.175Z,-0.50
2022-11-21T01:42:46.974Z,-0.60
2022-11-21T01:46:02.307Z,-0.60
2022-11-21T01:49:14.778Z,-0.60
2022-11-21T01:51:55.535Z,-0.70
2022-11-21T01:54:29.472Z,-0.70
2022-11-21T01:56:59.865Z,-0.50
2022-11-21T01:59:58.977Z,-0.60
2022-11-21T02:02:30.682Z,-0.60
2022-11-21T02:05:00.197Z,-0.60
2022-11-21T02:07:30.592Z,-0.50
2022-11-21T02:10:03.099Z,-0.40
2022-11-21T02:12:39.535Z,-0.50
2022-11-21T02:15:07.375Z,-0.50
2022-11-21T02:17:34.498Z,-0.60
2022-11-21T02:20:11.066Z,-0.50
2022-11-21T02:22:50.512Z,-0.60
2022-11-21T02:25:27.522Z,-0.60
2022-11-21T02:28:01.461Z,-0.70
2022-11-21T02:30:31.749Z,-0.70
2022-11-21T02:32:59.218Z,-0.70
2022-11-21T02:35:26.903Z,-0.70
2022-11-21T02:37:59.622Z,-0.60
2022-11-21T02:40:32.363Z,-0.70
2022-11-21T02:43:02.001Z,-0.60
2022-11-21T02:45:39.274Z,-0.70
2022-11-21T02:48:08.221Z,-0.50
2022-11-21T02:50:37.544Z,-0.40
2022-11-21T02:53:06.425Z,-0.30
2022-11-21T02:55:33.691Z,-0.10
2022-11-21T02:58:04.867Z,0.10
2022-11-21T03:00:33.866Z,0.00
2022-11-21T03:03:01.394Z,-0.10
2022-11-21T03:05:28.925Z,-0.20
2022-11-21T03:07:56.075Z,-0.20
2022-11-21T03:10:23.198Z,-0.30
2022-11-21T03:12:50.350Z,-0.20
2022-11-21T03:15:17.681Z,-0.10
2022-11-21T03:17:49.714Z,-0.10
2022-11-21T03:20:16.886Z,0.00
2022-11-21T03:22:43.997Z,0.00
2022-11-21T03:25:11.164Z,0.00
2022-11-21T03:27:38.251Z,0.00
2022-11-21T03:30:06.006Z,0.00
2022-11-21T03:32:33.198Z,-0.10
2022-11-21T03:35:00.317Z,-0.10
2022-11-21T03:37:27.494Z,-0.10
2022-11-21T03:39:54.718Z,-0.10
2022-11-21T03:42:21.885Z,-0.10
2022-11-21T03:44:49.014Z,0.10
2022-11-21T03:47:16.136Z,0.10
2022-11-21T03:49:43.219Z,0.00
2022-11-21T03:52:10.404Z,-0.20
2022-11-21T03:54:37.577Z,-0.20
2022-11-21T03:57:04.736Z,-0.30
2022-11-21T03:59:31.845Z,-0.30
2022-11-21T04:01:59.038Z,-0.30
2022-11-21T04:04:26.509Z,-0.10
2022-11-21T04:06:53.864Z,0.00
2022-11-21T04:09:20.975Z,0.00
2022-11-21T04:11:48.245Z,0.10
2022-11-21T04:14:15.369Z,0.20
2022-11-21T04:16:42.506Z,0.20
2022-11-21T04:19:09.606Z,0.10
2022-11-21T04:21:36.754Z,0.20
2022-11-21T04:24:03.999Z,0.10
2022-11-21T04:26:31.758Z,0.10
2022-11-21T04:28:59.020Z,0.10
2022-11-21T04:31:26.174Z,0.00
2022-11-21T04:33:53.326Z,0.10
2022-11-21T04:36:20.530Z,0.20
2022-11-21T04:38:47.937Z,0.20
2022-11-21T04:41:15.146Z,0.20
2022-11-21T04:43:42.277Z,0.40
2022-11-21T04:46:09.451Z,0.50
2022-11-21T04:48:36.599Z,0.50
2022-11-21T04:51:03.841Z,0.70
2022-11-21T04:53:31.134Z,0.80
2022-11-21T04:55:58.421Z,0.70
2022-11-21T04:58:25.602Z,0.70
2022-11-21T05:00:52.765Z,0.60
2022-11-21T05:03:19.992Z,0.50
2022-11-21T05:05:47.659Z,0.50
2022-11-21T05:08:14.938Z,0.60
2022-11-21T05:11:02.332Z,0.60
2022-11-21T05:13:29.421Z,0.60
2022-11-21T05:15:57.695Z,0.60
2022-11-21T05:18:25.286Z,0.60
2022-11-21T05:20:52.447Z,0.60
2022-11-21T05:23:19.594Z,0.60
2022-11-21T05:25:46.779Z,0.60
2022-11-21T05:28:13.895Z,0.60
2022-11-21T05:30:41.102Z,0.50
2022-11-21T05:33:08.277Z,0.50
2022-11-21T05:35:40.144Z,0.50
2022-11-21T05:38:09.958Z,0.50
2022-11-21T05:40:37.169Z,0.40
2022-11-21T05:43:22.775Z,0.40
2022-11-21T05:45:50.817Z,0.30
2022-11-21T05:48:18.544Z,0.40
2022-11-21T05:50:49.646Z,0.40
2022-11-21T05:53:17.650Z,0.50
2022-11-21T05:55:45.128Z,0.70
2022-11-21T05:58:12.648Z,0.70
2022-11-21T06:00:40.113Z,0.60
2022-11-21T06:03:27.153Z,0.60
2022-11-21T06:06:17.673Z,0.60
2022-11-21T06:08:47.434Z,0.60
2022-11-21T06:11:16.747Z,0.70
2022-11-21T06:13:44.866Z,0.80
2022-11-21T06:16:15.025Z,0.70
2022-11-21T06:18:44.351Z,0.60
2022-11-21T06:21:20.404Z,0.60
2022-11-21T06:23:50.244Z,0.60
2022-11-21T06:26:20.138Z,0.60
2022-11-21T06:28:47.994Z,0.60
2022-11-21T06:31:18.125Z,0.50
2022-11-21T06:33:46.049Z,0.50
2022-11-21T06:36:15.801Z,0.40
2022-11-21T06:38:44.413Z,0.40
2022-11-21T06:41:14.142Z,0.30
2022-11-21T06:43:41.946Z,0.30
2022-11-21T06:46:10.001Z,0.30
2022-11-21T06:48:38.082Z,0.30
2022-11-21T06:51:24.862Z,0.30
2022-11-21T06:53:57.427Z,0.30
2022-11-21T06:56:25.921Z,0.30
2022-11-21T06:58:53.450Z,0.30
2022-11-21T07:01:20.738Z,0.30
2022-11-21T07:03:47.870Z,0.30
2022-11-21T07:06:15.326Z,0.40
2022-11-21T07:08:42.494Z,0.40
2022-11-21T07:11:29.813Z,0.40
2022-11-21T07:13:56.994Z,0.40
2022-11-21T07:16:26.364Z,0.30
2022-11-21T07:18:53.731Z,0.30
2022-11-21T07:21:20.921Z,0.40
2022-11-21T07:23:48.718Z,0.40
2022-11-21T07:26:15.943Z,0.50
2022-11-21T07:28:43.405Z,0.60
2022-11-21T07:31:13.956Z,0.70
2022-11-21T07:33:43.674Z,0.80
2022-11-21T07:36:11.980Z,1.00
2022-11-21T07:38:40.921Z,1.10
2022-11-21T07:41:08.199Z,1.30
2022-11-21T07:43:35.363Z,1.40
2022-11-21T07:46:02.477Z,1.40
2022-11-21T07:48:29.677Z,1.40
2022-11-21T07:50:56.789Z,1.50
2022-11-21T07:53:24.578Z,1.50
2022-11-21T07:55:51.751Z,1.50
2022-11-21T07:58:19.146Z,1.60
2022-11-21T08:00:46.359Z,1.70
2022-11-21T08:03:14.054Z,1.70
2022-11-21T08:05:42.972Z,1.80
2022-11-21T08:08:12.157Z,1.80
2022-11-21T08:10:42.115Z,1.90
2022-11-21T08:13:09.673Z,2.00
2022-11-21T08:15:36.998Z,2.00
2022-11-21T08:18:19.284Z,2.00
2022-11-21T08:21:05.498Z,2.10
2022-11-21T08:23:32.986Z,2.10
2022-11-21T08:26:00.379Z,2.00
2022-11-21T08:28:27.815Z,2.10
2022-11-21T08:30:55.236Z,2.10
2022-11-21T08:33:23.060Z,2.10
2022-11-21T08:35:50.200Z,2.10
2022-11-21T08:38:17.380Z,2.20
2022-11-21T08:40:44.555Z,2.20
2022-11-21T08:43:11.787Z,2.30
2022-11-21T08:45:39.807Z,2.40
2022-11-21T08:48:11.838Z,2.60
2022-11-21T08:50:57.947Z,2.60
2022-11-21T08:53:25.210Z,2.70
2022-11-21T08:56:10.947Z,2.80
2022-11-21T08:58:38.182Z,2.80
2022-11-21T09:01:05.349Z,2.80
2022-11-21T09:03:32.942Z,2.90
2022-11-21T09:06:00.859Z,3.00
2022-11-21T09:08:30.286Z,3.00
2022-11-21T09:11:15.646Z,3.10
2022-11-21T09:13:42.830Z,3.10
2022-11-21T09:16:30.404Z,3.30
2022-11-21T09:18:57.620Z,3.30
2022-11-21T09:21:24.754Z,3.30
2022-11-21T09:23:51.862Z,3.40
2022-11-21T09:26:19.029Z,3.40
2022-11-21T09:28:47.059Z,3.50
2022-11-21T09:31:14.422Z,3.40
2022-11-21T09:33:41.585Z,3.50
2022-11-21T09:36:08.826Z,3.40
2022-11-21T09:38:35.968Z,3.40
2022-11-21T09:41:54.578Z,3.40
2022-11-21T09:44:50.193Z,3.50
2022-11-21T09:47:32.963Z,3.70
2022-11-21T09:50:07.430Z,3.90
2022-11-21T09:52:42.268Z,3.90
2022-11-21T09:55:25.108Z,4.00
2022-11-21T09:57:52.285Z,4.10
2022-11-21T10:00:24.988Z,4.20
2022-11-21T10:02:52.920Z,4.30
2022-11-21T10:05:41.277Z,4.50
2022-11-21T10:08:39.658Z,4.50
2022-11-21T10:12:03.426Z,4.70
2022-11-21T10:14:48.131Z,4.80
2022-11-21T10:17:37.043Z,4.80
2022-11-21T10:20:16.225Z,4.90
2022-11-21T10:23:17.352Z,4.90
2022-11-21T10:25:55.173Z,5.10
2022-11-21T10:28:38.755Z,5.20
2022-11-21T10:31:11.648Z,5.30
2022-11-21T10:33:40.592Z,5.30
2022-11-21T10:36:22.214Z,5.50
2022-11-21T10:38:50.385Z,5.50
2022-11-21T10:41:25.306Z,5.50
2022-11-21T10:44:20.360Z,5.50
2022-11-21T10:47:01.705Z,5.60
2022-11-21T10:49:34.008Z,5.80
2022-11-21T10:52:17.518Z,5.80
2022-11-21T10:55:03.114Z,5.90
2022-11-21T10:57:37.947Z,5.90
2022-11-21T11:00:16.818Z,6.10
2022-11-21T11:03:04.855Z,6.10
2022-11-21T11:05:41.558Z,6.40
2022-11-21T11:08:11.548Z,6.30
2022-11-21T11:11:01.613Z,6.40
2022-11-21T11:13:46.502Z,6.60
2022-11-21T11:16:21.419Z,6.80
2022-11-21T11:19:03.228Z,6.80
2022-11-21T11:21:44.202Z,7.00
2022-11-21T11:24:11.343Z,7.10
2022-11-21T11:26:48.656Z,7.20
2022-11-21T11:29:17.246Z,7.40
2022-11-21T11:32:22.842Z,7.40
2022-11-21T11:35:00.421Z,7.50
2022-11-21T11:37:41.091Z,7.60
2022-11-21T11:40:17.766Z,7.80
2022-11-21T11:43:25.490Z,7.90
2022-11-21T11:46:44.966Z,7.90
2022-11-21T11:49:59.775Z,8.20
2022-11-21T11:52:33.182Z,8.10
2022-11-21T11:55:05.227Z,8.20
2022-11-21T11:57:35.689Z,8.10
2022-11-21T12:00:36.278Z,8.00
2022-11-21T12:03:18.799Z,7.70
2022-11-21T12:06:02.444Z,7.60
2022-11-21T12:08:42.660Z,7.50
2022-11-21T12:12:06.298Z,7.50
2022-11-21T12:14:56.021Z,7.40
2022-11-21T12:17:33.865Z,7.30
2022-11-21T12:20:05.449Z,7.30
2022-11-21T12:22:32.659Z,7.20
2022-11-21T12:24:59.794Z,7.10
2022-11-21T12:27:34.005Z,7.10
2022-11-21T12:30:21.743Z,7.10
2022-11-21T12:33:08.848Z,7.20
2022-11-21T12:36:17.422Z,7.20
2022-11-21T12:39:00.396Z,7.30
2022-11-21T12:42:17.971Z,7.40
2022-11-21T12:44:57.373Z,7.50
2022-11-21T12:48:27.839Z,7.70
2022-11-21T12:51:41.433Z,7.80
2022-11-21T12:54:33.537Z,7.70
2022-11-21T12:57:18.481Z,7.70
2022-11-21T13:00:00.770Z,7.80
2022-11-21T13:03:18.858Z,7.80
2022-11-21T13:05:49.838Z,7.70
2022-11-21T13:08:24.687Z,7.80
2022-11-21T13:11:51.053Z,7.80
2022-11-21T13:14:40.191Z,7.80
2022-11-21T13:17:15.638Z,7.70
2022-11-21T13:19:52.308Z,7.80
2022-11-21T13:22:38.124Z,7.80
2022-11-21T13:25:13.055Z,7.70
2022-11-21T13:27:42.176Z,7.70
2022-11-21T13:30:12.160Z,7.70
2022-11-21T13:32:44.201Z,7.80
2022-11-21T13:35:20.560Z,7.80
2022-11-21T13:38:03.811Z,7.90
2022-11-21T13:40:30.903Z,7.70
2022-11-21T13:45:59.458Z,7.90
2022-11-21T13:48:34.581Z,8.00
2022-11-21T13:51:30.720Z,8.00
2022-11-21T13:54:34.756Z,8.00
2022-11-21T13:57:47.412Z,7.90
2022-11-21T14:00:24.798Z,7.90
2022-11-21T14:03:24.458Z,7.80
2022-11-21T14:06:10.487Z,7.90
2022-11-21T14:08:37.897Z,7.80
2022-11-21T14:11:30.252Z,7.80
2022-11-21T14:13:57.464Z,7.90
2022-11-21T14:16:36.911Z,7.80
2022-11-21T14:19:05.377Z,7.90
2022-11-21T14:21:34.112Z,7.80
2022-11-21T14:24:13.496Z,7.70
2022-11-21T14:26:47.226Z,7.60
2022-11-21T14:29:27.562Z,7.60
2022-11-21T14:31:55.860Z,7.50
2022-11-21T14:34:28.978Z,7.50
2022-11-21T14:37:04.578Z,7.40
2022-11-21T14:39:38.119Z,7.30
2022-11-21T14:42:15.900Z,7.20
2022-11-21T14:44:43.939Z,7.00
2022-11-21T14:47:25.656Z,6.90
2022-11-21T14:49:55.327Z,6.80
2022-11-21T14:52:29.382Z,6.60
2022-11-21T14:57:46.426Z,6.50
2022-11-21T15:00:51.607Z,6.40
2022-11-21T15:03:21.928Z,6.30
2022-11-21T15:06:08.002Z,6.20
2022-11-21T15:11:51.441Z,6.30
2022-11-21T15:14:18.581Z,6.20
2022-11-21T15:16:50.056Z,6.10
2022-11-21T15:19:21.797Z,6.10
2022-11-21T15:21:51.476Z,6.10
2022-11-21T15:24:43.916Z,6.10
2022-11-21T15:27:24.515Z,6.00
2022-11-21T15:30:10.302Z,5.90
2022-11-21T15:33:07.157Z,5.70
2022-11-21T15:35:54.234Z,5.40
2022-11-21T15:38:27.809Z,5.20
2022-11-21T15:41:00.170Z,5.10
2022-11-21T15:43:42.452Z,5.10
2022-11-21T15:46:24.624Z,5.10
2022-11-21T15:48:57.382Z,5.00
2022-11-21T15:51:59.671Z,4.90
2022-11-21T15:54:22.167Z,4.80
2022-11-21T15:56:49.501Z,4.60
2022-11-21T15:59:17.442Z,4.50
2022-11-21T16:01:44.769Z,4.40
2022-11-21T16:04:12.713Z,4.40
2022-11-21T16:06:40.158Z,4.30
2022-11-21T16:09:07.391Z,3.90
2022-11-21T16:11:40.787Z,3.80
2022-11-21T16:14:09.051Z,3.80
2022-11-21T16:16:43.253Z,3.70
2022-11-21T16:19:15.124Z,3.70
2022-11-21T16:21:42.728Z,3.70
2022-11-21T16:24:09.962Z,3.60
2022-11-21T16:26:37.204Z,3.30
2022-11-21T16:29:05.738Z,3.20
2022-11-21T16:31:33.849Z,3.20
2022-11-21T16:34:01.301Z,3.20
2022-11-21T16:36:29.913Z,3.10
2022-11-21T16:39:01.750Z,3.10
2022-11-21T16:41:30.754Z,3.10
2022-11-21T16:43:58.683Z,3.10
2022-11-21T16:46:26.080Z,3.10
2022-11-21T16:49:01.597Z,3.10
2022-11-21T16:51:29.700Z,3.10
2022-11-21T16:54:00.700Z,3.10
2022-11-21T16:56:30.254Z,3.10
2022-11-21T16:58:57.388Z,3.00
2022-11-21T17:01:26.271Z,3.00
2022-11-21T17:03:54.070Z,2.80
2022-11-21T17:06:24.476Z,2.70
2022-11-21T17:08:51.605Z,2.50
2022-11-21T17:11:26.446Z,2.50
2022-11-21T17:13:53.751Z,2.40
2022-11-21T17:16:22.220Z,2.40
2022-11-21T17:18:54.060Z,2.40
2022-11-21T17:21:21.939Z,2.30
2022-11-21T17:23:49.611Z,2.30
2022-11-21T17:26:19.506Z,2.20
2022-11-21T17:29:01.031Z,2.00
2022-11-21T17:31:28.645Z,1.80
2022-11-21T17:33:57.356Z,1.70
2022-11-21T17:36:27.166Z,1.60
2022-11-21T17:38:55.076Z,1.60
2022-11-21T17:41:24.059Z,1.60
2022-11-21T17:43:55.517Z,1.70
2022-11-21T17:46:25.308Z,1.70
2022-11-21T17:48:57.210Z,1.70
2022-11-21T17:51:28.850Z,1.80
2022-11-21T17:53:56.495Z,1.80
2022-11-21T17:56:26.311Z,1.70
2022-11-21T17:58:53.802Z,1.70
2022-11-21T18:01:22.158Z,1.40
2022-11-21T18:03:54.236Z,1.40
2022-11-21T18:06:21.404Z,1.30
2022-11-21T18:08:49.549Z,1.30
2022-11-21T18:11:23.838Z,1.40
2022-11-21T18:13:51.293Z,1.50
2022-11-21T18:16:20.799Z,1.50
2022-11-21T18:18:49.814Z,1.70
2022-11-21T18:21:19.771Z,1.70
2022-11-21T18:23:47.279Z,1.50
2022-11-21T18:26:23.970Z,1.40
2022-11-21T18:29:13.378Z,1.20
2022-11-21T18:31:43.035Z,1.10
2022-11-21T18:34:12.089Z,1.10
2022-11-21T18:36:39.397Z,1.00
2022-11-21T18:39:14.179Z,1.00
2022-11-21T18:41:42.782Z,0.90
2022-11-21T18:44:10.363Z,0.80
2022-11-21T18:46:40.847Z,0.80
2022-11-21T18:49:08.588Z,0.60
2022-11-21T18:51:36.752Z,0.60
2022-11-21T18:54:11.054Z,0.70
2022-11-21T18:56:39.593Z,0.60
2022-11-21T18:59:07.192Z,0.70
2022-11-21T19:01:36.574Z,0.70
2022-11-21T19:04:04.065Z,0.60
2022-11-21T19:06:31.717Z,0.60
2022-11-21T19:08:59.202Z,0.60
2022-11-21T19:11:28.752Z,0.60
2022-11-21T19:13:57.240Z,0.50
2022-11-21T19:16:26.376Z,0.60
2022-11-21T19:21:42.649Z,0.50
2022-11-21T19:24:14.328Z,0.70
2022-11-21T19:26:42.307Z,0.70
2022-11-21T19:29:10.459Z,0.80
2022-11-21T19:31:43.007Z,0.80
2022-11-21T19:34:12.231Z,0.70
2022-11-21T19:36:39.589Z,0.60
2022-11-21T19:39:06.871Z,0.50
2022-11-21T19:41:34.127Z,0.50
2022-11-21T19:44:02.259Z,0.40
2022-11-21T19:46:32.666Z,0.30
2022-11-21T19:49:00.125Z,0.40
2022-11-21T19:51:36.116Z,0.50
2022-11-21T19:54:07.255Z,0.30
2022-11-21T19:56:35.066Z,0.10
2022-11-21T19:59:02.257Z,-0.20
2022-11-21T20:01:31.454Z,-0.20
2022-11-21T20:04:04.207Z,-0.40
2022-11-21T20:06:36.860Z,-0.30
2022-11-21T20:09:11.537Z,-0.30
2022-11-21T20:11:40.649Z,-0.20
2022-11-21T20:14:08.318Z,-0.20
2022-11-21T20:16:38.778Z,0.00
2022-11-21T20:19:11.706Z,0.10
2022-11-21T20:21:39.553Z,0.20
2022-11-21T20:24:07.750Z,0.30
2022-11-21T20:26:36.230Z,0.20
2022-11-21T20:29:04.732Z,0.00
2022-11-21T20:31:34.403Z,0.00
2022-11-21T20:34:04.541Z,-0.10
2022-11-21T20:36:33.971Z,-0.10
2022-11-21T20:39:07.245Z,-0.20
2022-11-21T20:41:36.503Z,-0.20
2022-11-21T20:46:53.878Z,-0.30
2022-11-21T20:49:21.148Z,-0.30
2022-11-21T20:54:36.787Z,-0.20
2022-11-21T20:57:04.018Z,-0.30
2022-11-21T20:59:31.498Z,-0.50
2022-11-21T21:01:58.985Z,-0.50
2022-11-21T21:04:26.257Z,-0.40
2022-11-21T21:06:53.586Z,-0.50
2022-11-21T21:09:20.711Z,-0.60
2022-11-21T21:11:53.048Z,-0.50
2022-11-21T21:14:23.638Z,-0.50
2022-11-21T21:16:50.848Z,-0.50
2022-11-21T21:19:18.613Z,-0.40
2022-11-21T21:21:45.859Z,-0.50
2022-11-21T21:24:13.778Z,-0.50
2022-11-21T21:26:46.625Z,-0.40
2022-11-21T21:29:18.262Z,-0.50
2022-11-21T21:31:50.939Z,-0.60
2022-11-21T21:34:19.823Z,-0.60
2022-11-21T21:36:47.225Z,-0.70
2022-11-21T21:39:14.731Z,-0.80
2022-11-21T21:41:46.009Z,-0.70
2022-11-21T21:44:14.169Z,-0.70
2022-11-21T21:46:41.624Z,-0.60
2022-11-21T21:49:08.997Z,-0.50
2022-11-21T21:51:40.093Z,-0.60
2022-11-21T21:54:13.412Z,-0.80
2022-11-21T21:56:40.534Z,-0.80
2022-11-21T21:59:07.734Z,-0.70
2022-11-21T22:01:34.911Z,-0.80
2022-11-21T22:04:04.175Z,-0.90
2022-11-21T22:06:33.880Z,-0.80
2022-11-21T22:09:01.502Z,-0.80
2022-11-21T22:11:31.646Z,-0.90
2022-11-21T22:14:00.088Z,-0.90
2022-11-21T22:16:27.918Z,-1.00
2022-11-21T22:18:55.709Z,-0.90
2022-11-21T22:21:28.611Z,-0.90
2022-11-21T22:24:23.449Z,-0.90
2022-11-21T22:26:45.170Z,-0.90
2022-11-21T22:29:12.322Z,-0.80
2022-11-21T22:31:39.621Z,-0.70
2022-11-21T22:34:06.788Z,-0.70
2022-11-21T22:36:33.846Z,-0.50
2022-11-21T22:39:00.967Z,-0.50
2022-11-21T22:41:28.329Z,-0.40
2022-11-21T22:43:58.543Z,-0.30
2022-11-21T22:46:27.421Z,-0.10
2022-11-21T22:48:55.388Z,0.10
2022-11-21T22:51:29.469Z,0.20
2022-11-21T22:53:57.675Z,0.30
2022-11-21T22:56:25.596Z,0.20
2022-11-21T22:58:53.188Z,0.20
2022-11-21T23:01:25.268Z,0.10
2022-11-21T23:03:53.111Z,0.00
2022-11-21T23:06:23.840Z,0.10
2022-11-21T23:08:55.492Z,0.20
2022-11-21T23:11:26.127Z,0.20
2022-11-21T23:13:54.282Z,0.20
2022-11-21T23:16:21.518Z,0.20
2022-11-21T23:18:51.324Z,0.30
2022-11-21T23:21:18.794Z,0.30
2022-11-21T23:23:45.923Z,0.30
2022-11-21T23:26:13.806Z,0.30
2022-11-21T23:28:41.089Z,0.30
2022-11-21T23:31:09.381Z,0.20
2022-11-21T23:33:36.566Z,0.30
2022-11-21T23:36:03.806Z,0.20
2022-11-21T23:38:30.973Z,0.30
2022-11-21T23:40:58.130Z,0.30
2022-11-21T23:43:25.402Z,0.40
2022-11-21T23:45:54.155Z,0.50
2022-11-21T23:48:22.072Z,0.50
2022-11-21T23:50:51.312Z,0.40
2022-11-21T23:53:19.522Z,0.40
2022-11-21T23:55:47.503Z,0.30
2022-11-21T23:58:15.396Z,0.10
